Time;durP1;ratioP1;P1;durP2;ratioP2;P2;SDS_P1;SDS_P2;PMS_P1;PMS_P2;Temp;Humidity;BMP_temperature;BMP_pressure;BME280_temperature;BME280_humidity;BME280_pressure;Samples;Min_cycle;Max_cycle;Signal;HPM_P1;HPM_P2
2022/05/15 00:01:10;;;;;;;0.60;0.10;;;18.20;99.90;;;;;;5076609;28;20477;-74
2022/05/15 00:03:39;;;;;;;0.60;0.20;;;18.20;99.90;;;;;;5075995;28;20488;-74
2022/05/15 00:06:09;;;;;;;0.60;0.13;;;;;;;;;;5075290;28;20917;-76
2022/05/15 00:08:39;;;;;;;0.60;0.20;;;18.10;99.90;;;;;;5078021;28;20449;-75
2022/05/15 00:11:09;;;;;;;0.70;0.23;;;18.10;99.90;;;;;;5075672;28;21014;-75
2022/05/15 00:13:38;;;;;;;0.60;0.20;;;18.10;99.90;;;;;;5075974;28;20448;-76
2022/05/15 00:16:07;;;;;;;0.60;0.17;;;18.00;99.90;;;;;;5074663;28;20467;-76
2022/05/15 00:18:35;;;;;;;0.70;0.20;;;18.00;99.90;;;;;;5075356;28;20486;-74
2022/05/15 00:21:03;;;;;;;0.60;0.20;;;18.00;99.90;;;;;;5076327;28;20543;-75
2022/05/15 00:23:32;;;;;;;0.70;0.40;;;18.00;99.90;;;;;;5075768;28;20440;-76
2022/05/15 00:26:00;;;;;;;0.60;0.20;;;18.00;99.90;;;;;;5074780;28;20474;-75
2022/05/15 00:28:28;;;;;;;0.60;0.17;;;18.00;99.90;;;;;;5074119;28;20682;-76
2022/05/15 00:30:56;;;;;;;0.60;0.10;;;18.00;99.90;;;;;;5074935;28;20934;-75
2022/05/15 00:33:24;;;;;;;0.60;0.20;;;18.00;99.90;;;;;;5073301;28;20445;-75
2022/05/15 00:35:53;;;;;;;0.60;0.10;;;18.00;99.90;;;;;;5074956;28;20453;-75
2022/05/15 00:38:21;;;;;;;0.60;0.20;;;18.00;99.90;;;;;;5075274;28;20565;-78
2022/05/15 00:40:53;;;;;;;0.60;0.20;;;18.00;99.90;;;;;;5073732;28;20243;-76
2022/05/15 00:43:41;;;;;;;0.80;0.47;;;18.00;99.90;;;;;;5071288;28;20449;-76
2022/05/15 00:46:13;;;;;;;0.60;0.10;;;18.00;99.90;;;;;;5054541;28;20489;-75
2022/05/15 00:48:43;;;;;;;0.60;0.17;;;18.00;99.90;;;;;;5056413;28;20208;-76
2022/05/15 00:51:18;;;;;;;0.60;0.10;;;18.00;99.90;;;;;;5055752;28;20925;-75
2022/05/15 00:53:49;;;;;;;0.90;0.70;;;17.90;99.90;;;;;;5054396;28;20208;-76
2022/05/15 00:56:22;;;;;;;0.60;0.20;;;17.90;99.90;;;;;;5055178;28;20550;-76
2022/05/15 00:58:53;;;;;;;0.80;0.50;;;17.80;99.90;;;;;;5055433;28;20441;-76
2022/05/15 01:01:21;;;;;;;3.23;0.97;;;17.80;99.90;;;;;;5054848;28;20540;-77
2022/05/15 01:03:50;;;;;;;0.60;0.10;;;17.80;99.90;;;;;;5053634;28;20458;-77
2022/05/15 01:06:18;;;;;;;0.60;0.10;;;17.80;99.90;;;;;;5052200;28;20480;-77
2022/05/15 01:08:46;;;;;;;0.60;0.10;;;17.80;99.90;;;;;;5052960;28;20446;-77
2022/05/15 01:11:17;;;;;;;0.60;0.30;;;17.80;99.90;;;;;;5053940;28;20683;-77
2022/05/15 01:13:49;;;;;;;0.60;0.10;;;17.80;99.90;;;;;;5060547;28;20731;-75
2022/05/15 01:16:22;;;;;;;0.60;0.17;;;17.80;99.90;;;;;;5063152;28;20442;-76
2022/05/15 01:18:54;;;;;;;0.60;0.20;;;17.70;99.90;;;;;;5060519;28;20446;-76
2022/05/15 01:21:28;;;;;;;0.60;0.30;;;17.70;99.90;;;;;;5073381;28;20445;-76
2022/05/15 01:23:56;;;;;;;0.60;0.20;;;17.70;99.90;;;;;;5072988;28;20443;-75
2022/05/15 01:26:26;;;;;;;0.60;0.20;;;17.60;99.90;;;;;;5072181;28;20445;-75
2022/05/15 01:28:55;;;;;;;0.60;0.20;;;17.50;99.90;;;;;;5071716;28;20445;-74
2022/05/15 01:31:24;;;;;;;0.60;0.30;;;17.50;99.90;;;;;;5072355;28;20445;-77
2022/05/15 01:33:53;;;;;;;0.60;0.17;;;17.50;99.90;;;;;;5072315;28;20502;-76
2022/05/15 01:36:22;;;;;;;0.60;0.20;;;17.40;99.90;;;;;;5072249;28;20469;-74
2022/05/15 01:38:53;;;;;;;0.60;0.20;;;17.30;99.90;;;;;;5072256;28;20449;-76
2022/05/15 01:41:21;;;;;;;0.60;0.20;;;17.40;99.90;;;;;;5072054;28;20446;-76
2022/05/15 01:43:52;;;;;;;0.60;0.23;;;17.30;99.90;;;;;;5072034;28;20446;-76
2022/05/15 01:46:22;;;;;;;0.60;0.10;;;17.30;99.90;;;;;;5071399;28;20431;-75
2022/05/15 01:48:51;;;;;;;0.60;0.10;;;17.20;99.90;;;;;;5071914;28;20976;-76
2022/05/15 01:51:19;;;;;;;0.70;0.30;;;17.20;99.90;;;;;;5071656;28;20980;-75
2022/05/15 01:53:48;;;;;;;0.60;0.30;;;17.20;99.90;;;;;;5072454;28;20442;-76
2022/05/15 01:56:17;;;;;;;0.60;0.20;;;17.20;99.90;;;;;;5071361;28;20511;-76
2022/05/15 01:58:45;;;;;;;0.60;0.20;;;17.20;99.90;;;;;;5072615;28;20443;-76
2022/05/15 02:01:13;;;;;;;0.60;0.10;;;17.20;99.90;;;;;;5072816;28;20457;-76
2022/05/15 02:03:41;;;;;;;0.70;0.50;;;17.30;99.90;;;;;;5073064;28;20321;-74
2022/05/15 02:06:09;;;;;;;0.60;0.10;;;17.30;99.90;;;;;;5073993;28;20203;-75
2022/05/15 02:08:39;;;;;;;0.60;0.10;;;17.30;99.90;;;;;;5073905;28;20511;-75
2022/05/15 02:11:07;;;;;;;0.60;0.20;;;17.30;99.90;;;;;;5073554;28;20891;-76
2022/05/15 02:13:36;;;;;;;0.60;0.10;;;17.40;99.90;;;;;;5073945;28;20447;-75
2022/05/15 02:16:05;;;;;;;0.60;0.10;;;17.40;99.90;;;;;;5072303;28;20446;-75
2022/05/15 02:18:33;;;;;;;0.60;0.10;;;17.40;99.90;;;;;;5071599;28;20448;-76
2022/05/15 02:21:01;;;;;;;0.60;0.20;;;17.30;99.90;;;;;;5072518;28;20449;-76
2022/05/15 02:23:29;;;;;;;0.60;0.20;;;17.30;99.90;;;;;;5071550;28;20202;-76
2022/05/15 02:25:57;;;;;;;0.60;0.10;;;17.30;99.90;;;;;;5071120;28;20536;-74
2022/05/15 02:28:26;;;;;;;0.60;0.10;;;17.30;99.90;;;;;;5071280;28;20490;-75
2022/05/15 02:30:56;;;;;;;0.60;0.20;;;17.30;99.90;;;;;;5071396;28;20492;-76
2022/05/15 02:33:28;;;;;;;0.60;0.10;;;17.30;99.90;;;;;;5072430;28;20438;-76
2022/05/15 02:35:58;;;;;;;2.40;2.30;;;17.20;99.90;;;;;;5071298;28;20454;-76
2022/05/15 02:38:26;;;;;;;0.60;0.10;;;17.20;99.90;;;;;;5071009;28;20477;-75
2022/05/15 02:40:54;;;;;;;0.70;0.40;;;17.10;99.90;;;;;;5072388;28;20545;-76
2022/05/15 02:43:22;;;;;;;0.60;0.10;;;17.10;99.90;;;;;;5077518;28;20211;-76
2022/05/15 02:45:50;;;;;;;0.60;0.10;;;17.10;99.90;;;;;;5077474;28;20511;-74
2022/05/15 02:51:05;;;;;;;0.70;0.30;;;17.00;99.90;;;;;;5076393;28;20810;-75
2022/05/15 02:53:35;;;;;;;0.70;0.43;;;16.90;99.90;;;;;;5075668;28;20449;-75
2022/05/15 02:56:07;;;;;;;0.60;0.20;;;16.80;99.90;;;;;;5075265;28;20829;-77
2022/05/15 02:58:35;;;;;;;0.80;0.30;;;16.80;99.90;;;;;;5074928;28;20440;-75
2022/05/15 03:01:03;;;;;;;0.60;0.10;;;16.80;99.90;;;;;;5070604;22;20573;-75
2022/05/15 03:03:33;;;;;;;0.60;0.10;;;16.70;99.90;;;;;;5054166;28;20516;-76
2022/05/15 03:06:01;;;;;;;0.70;0.40;;;16.70;99.90;;;;;;5052828;28;20444;-76
2022/05/15 03:08:29;;;;;;;0.60;0.20;;;16.70;99.90;;;;;;5053863;28;20482;-76
2022/05/15 03:10:57;;;;;;;0.87;0.67;;;16.60;99.90;;;;;;5054127;28;20481;-76
2022/05/15 03:13:24;;;;;;;0.60;0.10;;;16.60;99.90;;;;;;5054561;28;20445;-76
2022/05/15 03:15:53;;;;;;;0.60;0.10;;;16.60;99.90;;;;;;5056296;28;20465;-76
2022/05/15 03:18:21;;;;;;;0.60;0.20;;;16.60;99.90;;;;;;5057645;28;20468;-77
2022/05/15 03:20:50;;;;;;;0.60;0.20;;;16.60;99.90;;;;;;5054458;28;20530;-77
2022/05/15 03:23:18;;;;;;;0.60;0.10;;;16.60;99.90;;;;;;5054084;28;20460;-77
2022/05/15 03:25:46;;;;;;;0.60;0.20;;;16.60;99.90;;;;;;5053971;28;20446;-76
2022/05/15 03:28:14;;;;;;;0.60;0.20;;;16.60;99.90;;;;;;5072842;28;20812;-76
2022/05/15 03:30:44;;;;;;;0.60;0.10;;;16.60;99.90;;;;;;5073066;28;20466;-75
2022/05/15 03:33:12;;;;;;;0.60;0.10;;;16.60;99.90;;;;;;5073654;28;20440;-77
2022/05/15 03:35:40;;;;;;;0.60;0.20;;;16.50;99.90;;;;;;5073141;28;20430;-75
2022/05/15 03:38:10;;;;;;;0.60;0.13;;;16.50;99.90;;;;;;5067968;28;20465;-76
2022/05/15 03:40:38;;;;;;;0.60;0.10;;;16.50;99.90;;;;;;5053417;28;20666;-76
2022/05/15 03:43:06;;;;;;;0.60;0.20;;;16.40;99.90;;;;;;5054172;28;20529;-75
2022/05/15 03:45:34;;;;;;;0.60;0.10;;;16.40;99.90;;;;;;5054181;28;20556;-75
2022/05/15 03:48:03;;;;;;;0.60;0.20;;;16.40;99.90;;;;;;5053129;28;20498;-76
2022/05/15 03:50:31;;;;;;;0.60;0.20;;;16.40;99.90;;;;;;5053182;28;20278;-75
2022/05/15 03:52:58;;;;;;;0.60;0.10;;;16.30;99.90;;;;;;5052988;28;20447;-76
2022/05/15 03:55:27;;;;;;;0.60;0.10;;;16.30;99.90;;;;;;5053428;28;20807;-76
2022/05/15 03:57:56;;;;;;;0.60;0.20;;;16.30;99.90;;;;;;5055015;28;20457;-77
2022/05/15 04:00:25;;;;;;;0.60;0.20;;;16.20;99.90;;;;;;5054527;28;20506;-75
2022/05/15 04:02:52;;;;;;;0.60;0.10;;;16.20;99.90;;;;;;5052722;28;20447;-75
2022/05/15 04:05:21;;;;;;;0.60;0.20;;;16.20;99.90;;;;;;5052550;28;20493;-75
2022/05/15 04:07:51;;;;;;;0.60;0.10;;;16.20;99.90;;;;;;5052285;28;20542;-75
2022/05/15 04:10:22;;;;;;;1.23;1.10;;;16.10;99.90;;;;;;5052825;28;20488;-76
2022/05/15 04:12:51;;;;;;;0.60;0.20;;;16.10;99.90;;;;;;5053137;28;20446;-77
2022/05/15 04:15:19;;;;;;;0.60;0.20;;;16.10;99.90;;;;;;5053001;28;20212;-75
2022/05/15 04:17:50;;;;;;;1.43;1.33;;;16.10;99.90;;;;;;5052602;28;20540;-75
2022/05/15 04:20:21;;;;;;;0.60;0.10;;;16.10;99.90;;;;;;5052686;28;20835;-75
2022/05/15 04:22:49;;;;;;;0.60;0.10;;;16.10;99.90;;;;;;5052978;28;20454;-76
2022/05/15 04:25:17;;;;;;;0.60;0.20;;;16.10;99.90;;;;;;5052911;28;20454;-75
2022/05/15 04:27:45;;;;;;;0.60;0.20;;;16.10;99.90;;;;;;5073471;28;20442;-77
2022/05/15 04:30:17;;;;;;;0.83;0.40;;;16.10;99.90;;;;;;5076255;28;20487;-76
2022/05/15 04:32:46;;;;;;;0.60;0.10;;;16.00;99.90;;;;;;5073018;28;20899;-76
2022/05/15 04:35:14;;;;;;;1.17;1.07;;;16.00;99.90;;;;;;5072080;28;20475;-77
2022/05/15 04:37:42;;;;;;;0.60;0.10;;;16.00;99.90;;;;;;5072162;28;20441;-76
2022/05/15 04:40:11;;;;;;;0.60;0.20;;;15.90;99.90;;;;;;5072254;28;20483;-77
2022/05/15 04:42:40;;;;;;;1.20;0.67;;;15.90;99.90;;;;;;5031440;28;20432;-76
2022/05/15 04:45:09;;;;;;;0.60;0.10;;;15.90;99.90;;;;;;5031920;28;20526;-76
2022/05/15 04:47:39;;;;;;;1.73;1.27;;;16.00;99.90;;;;;;5031808;28;20217;-76
2022/05/15 04:50:08;;;;;;;0.60;0.20;;;15.90;99.90;;;;;;5032746;28;20997;-77
2022/05/15 04:52:36;;;;;;;0.60;0.20;;;15.90;99.90;;;;;;5040942;28;20564;-76
2022/05/15 04:55:04;;;;;;;2.40;0.77;;;15.90;99.90;;;;;;5052924;28;20456;-77
2022/05/15 04:57:32;;;;;;;0.60;0.10;;;15.90;99.90;;;;;;5052156;28;20448;-77
2022/05/15 05:00:00;;;;;;;0.60;0.10;;;15.90;99.90;;;;;;5052175;28;20478;-76
2022/05/15 05:02:28;;;;;;;0.60;0.20;;;15.90;99.90;;;;;;5052893;28;20796;-76
2022/05/15 05:04:59;;;;;;;0.60;0.10;;;15.80;99.90;;;;;;5051661;28;20448;-76
2022/05/15 05:07:27;;;;;;;0.60;0.30;;;15.80;99.90;;;;;;5051504;28;20532;-78
2022/05/15 05:09:55;;;;;;;0.60;0.10;;;15.70;99.90;;;;;;5052920;28;20483;-76
2022/05/15 05:12:23;;;;;;;0.60;0.20;;;15.80;99.90;;;;;;5052085;28;20461;-76
2022/05/15 05:14:51;;;;;;;0.60;0.20;;;15.80;99.90;;;;;;5052244;28;20458;-76
2022/05/15 05:17:19;;;;;;;0.60;0.17;;;15.70;99.90;;;;;;5051663;28;20801;-75
2022/05/15 05:19:47;;;;;;;0.60;0.20;;;15.70;99.90;;;;;;5051616;28;20465;-75
2022/05/15 05:22:16;;;;;;;0.60;0.10;;;15.60;99.90;;;;;;5051763;28;20515;-76
2022/05/15 05:24:44;;;;;;;0.70;0.50;;;15.70;99.90;;;;;;5051458;28;20444;-77
2022/05/15 05:27:12;;;;;;;0.60;0.17;;;15.70;99.90;;;;;;5061411;28;20448;-76
2022/05/15 05:29:40;;;;;;;0.70;0.30;;;15.70;99.90;;;;;;5051570;28;20487;-76
2022/05/15 05:32:09;;;;;;;0.60;0.20;;;15.70;99.90;;;;;;5051782;28;20446;-76
2022/05/15 05:34:38;;;;;;;0.60;0.10;;;15.80;99.90;;;;;;5051363;28;20430;-76
2022/05/15 05:37:06;;;;;;;0.60;0.10;;;15.80;99.90;;;;;;5052210;28;20956;-76
2022/05/15 05:39:35;;;;;;;0.60;0.10;;;15.90;99.90;;;;;;5059626;28;20461;-76
2022/05/15 05:42:03;;;;;;;0.60;0.20;;;15.90;99.90;;;;;;5062664;28;20439;-76
2022/05/15 05:44:31;;;;;;;0.60;0.10;;;16.00;99.90;;;;;;5057381;28;20455;-75
2022/05/15 05:46:59;;;;;;;0.60;0.10;;;16.10;99.90;;;;;;5053342;28;20446;-75
2022/05/15 05:49:27;;;;;;;0.60;0.10;;;16.30;99.90;;;;;;5052049;28;20549;-77
2022/05/15 05:51:55;;;;;;;0.60;0.13;;;16.30;99.90;;;;;;5052290;28;20439;-76
2022/05/15 05:54:23;;;;;;;0.60;0.10;;;16.40;99.90;;;;;;5051331;28;20451;-77
2022/05/15 05:56:52;;;;;;;0.60;0.10;;;16.50;99.90;;;;;;5051306;28;20450;-77
2022/05/15 05:59:20;;;;;;;0.60;0.20;;;16.50;99.90;;;;;;5051071;28;20451;-77
2022/05/15 06:01:48;;;;;;;0.60;0.20;;;16.60;99.90;;;;;;5051713;28;20534;-76
2022/05/15 06:07:01;;;;;;;0.60;0.10;;;16.60;99.90;;;;;;5051080;28;20450;-76
2022/05/15 06:09:29;;;;;;;0.60;0.10;;;16.70;99.90;;;;;;5052052;28;20514;-76
2022/05/15 06:12:00;;;;;;;0.60;0.10;;;16.80;99.90;;;;;;5051146;28;20866;-76
2022/05/15 06:14:28;;;;;;;0.60;0.10;;;16.90;99.90;;;;;;5050913;28;21060;-76
2022/05/15 06:16:56;;;;;;;0.60;0.20;;;16.80;99.90;;;;;;5054286;28;20474;-76
2022/05/15 06:19:24;;;;;;;0.60;0.20;;;17.00;99.90;;;;;;5055778;28;20513;-75
2022/05/15 06:21:52;;;;;;;0.60;0.20;;;17.00;99.90;;;;;;5056122;28;20438;-77
2022/05/15 06:24:20;;;;;;;0.60;0.20;;;17.00;99.90;;;;;;5056969;28;20446;-76
2022/05/15 06:26:48;;;;;;;0.60;0.10;;;17.10;99.90;;;;;;5064593;28;20514;-76
2022/05/15 06:29:17;;;;;;;0.60;0.10;;;17.20;99.90;;;;;;5074973;28;20507;-76
2022/05/15 06:31:46;;;;;;;0.70;0.33;;;17.30;99.90;;;;;;5075226;28;20441;-75
2022/05/15 06:34:14;;;;;;;0.60;0.13;;;17.30;99.90;;;;;;5075484;28;20516;-75
2022/05/15 06:36:43;;;;;;;0.60;0.30;;;17.40;99.90;;;;;;5074634;28;20445;-76
2022/05/15 06:39:11;;;;;;;0.60;0.10;;;17.50;99.90;;;;;;5074748;28;20208;-76
2022/05/15 06:41:50;;;;;;;1.33;1.20;;;;;;;;;;5074820;28;20470;-75
2022/05/15 06:44:19;;;;;;;0.60;0.20;;;17.60;99.90;;;;;;5074555;28;20452;-76
2022/05/15 06:46:47;;;;;;;0.60;0.10;;;17.50;99.90;;;;;;5074620;28;20915;-78
2022/05/15 06:49:16;;;;;;;0.60;0.20;;;17.60;99.90;;;;;;5074383;28;20791;-77
2022/05/15 06:51:44;;;;;;;0.60;0.20;;;17.60;99.90;;;;;;5074540;28;20452;-77
2022/05/15 06:54:12;;;;;;;0.60;0.10;;;17.70;99.90;;;;;;5075498;28;20523;-75
2022/05/15 06:59:26;;;;;;;0.70;0.33;;;17.90;99.90;;;;;;5074308;28;20905;-75
2022/05/15 07:01:54;;;;;;;0.60;0.10;;;17.90;99.90;;;;;;5074511;28;20932;-76
2022/05/15 07:04:22;;;;;;;0.60;0.20;;;18.00;99.90;;;;;;5074077;28;20514;-76
2022/05/15 07:06:50;;;;;;;0.80;0.67;;;18.10;99.90;;;;;;5076352;28;20433;-78
2022/05/15 07:09:18;;;;;;;0.60;0.10;;;18.20;99.90;;;;;;5075999;28;20475;-76
2022/05/15 07:11:47;;;;;;;0.60;0.10;;;;;;;;;;5075783;28;20477;-76
2022/05/15 07:14:20;;;;;;;0.60;0.20;;;18.30;99.90;;;;;;5075168;28;20811;-77
2022/05/15 07:16:49;;;;;;;0.60;0.17;;;18.40;99.90;;;;;;5074835;28;20204;-75
2022/05/15 07:19:17;;;;;;;0.60;0.20;;;18.50;99.90;;;;;;5074557;28;20534;-77
2022/05/15 07:21:45;;;;;;;1.23;1.13;;;18.50;99.90;;;;;;5075080;28;20452;-77
2022/05/15 07:24:12;;;;;;;0.60;0.10;;;18.60;99.90;;;;;;5074118;28;20456;-78
2022/05/15 07:26:45;;;;;;;0.60;0.10;;;18.60;99.90;;;;;;5065890;28;20942;-78
2022/05/15 07:29:13;;;;;;;0.60;0.10;;;18.70;99.90;;;;;;5064188;28;20446;-76
2022/05/15 07:31:42;;;;;;;0.60;0.10;;;18.70;99.90;;;;;;5065341;28;20492;-76
2022/05/15 07:34:12;;;;;;;0.60;0.20;;;18.70;99.90;;;;;;5050131;28;20451;-77
2022/05/15 07:36:39;;;;;;;0.80;0.53;;;18.80;99.90;;;;;;5051192;28;20466;-77
2022/05/15 07:39:08;;;;;;;0.60;0.20;;;;;;;;;;5048019;28;20454;-76
2022/05/15 07:41:36;;;;;;;0.77;0.43;;;18.90;99.90;;;;;;5055352;28;20468;-77
2022/05/15 07:44:04;;;;;;;0.90;0.50;;;19.00;99.90;;;;;;5062973;28;20929;-78
2022/05/15 07:46:32;;;;;;;0.70;0.10;;;19.00;99.90;;;;;;5062731;28;20463;-76
2022/05/15 07:49:00;;;;;;;0.60;0.10;;;19.00;99.90;;;;;;5059316;28;20437;-74
2022/05/15 07:51:31;;;;;;;0.60;0.10;;;19.10;99.90;;;;;;5055138;28;20489;-77
2022/05/15 07:53:59;;;;;;;0.67;0.20;;;19.20;99.90;;;;;;5056918;28;20542;-76
2022/05/15 07:56:28;;;;;;;0.60;0.10;;;19.30;99.90;;;;;;5054692;28;20456;-77
2022/05/15 07:58:56;;;;;;;0.60;0.10;;;19.50;99.90;;;;;;5054131;28;20525;-77
2022/05/15 08:01:23;;;;;;;0.70;0.20;;;19.60;99.90;;;;;;5054627;28;20230;-78
2022/05/15 08:03:52;;;;;;;0.70;0.20;;;;;;;;;;5054573;28;20451;-76
2022/05/15 08:09:08;;;;;;;0.70;0.10;;;19.80;99.90;;;;;;5054813;28;20474;-75
2022/05/15 08:11:37;;;;;;;0.70;0.20;;;19.70;99.90;;;;;;5054431;28;20835;-76
2022/05/15 08:14:07;;;;;;;0.70;0.20;;;19.80;99.90;;;;;;5051103;28;20326;-77
2022/05/15 08:16:36;;;;;;;0.70;0.10;;;19.90;99.90;;;;;;5050387;28;20481;-77
2022/05/15 08:24:34;;;;;;;0.70;0.20;;;20.00;99.90;;;;;;4995761;28;20485;-77
2022/05/15 08:27:04;;;;;;;0.70;0.10;;;20.10;99.90;;;;;;4994324;28;20461;-77
2022/05/15 08:29:34;;;;;;;0.70;0.20;;;20.10;99.90;;;;;;5007964;28;20462;-77
2022/05/15 08:32:02;;;;;;;0.67;0.10;;;20.10;99.90;;;;;;4994912;28;20817;-77
2022/05/15 08:34:30;;;;;;;0.80;0.40;;;20.10;99.90;;;;;;4998861;28;20444;-77
2022/05/15 08:36:58;;;;;;;2.83;1.70;;;20.10;99.90;;;;;;5012212;28;20210;-78
2022/05/15 08:39:26;;;;;;;0.60;0.10;;;20.20;99.90;;;;;;5011640;28;20476;-78
2022/05/15 08:42:08;;;;;;;0.80;0.33;;;20.30;99.90;;;;;;4993962;28;20490;-77
2022/05/15 08:44:43;;;;;;;0.70;0.20;;;20.30;99.90;;;;;;4991546;28;21072;-77
2022/05/15 08:47:23;;;;;;;0.60;0.13;;;20.30;99.90;;;;;;4987755;28;20844;-77
2022/05/15 08:49:57;;;;;;;0.70;0.10;;;20.50;99.90;;;;;;4994177;28;20976;-76
2022/05/15 08:52:31;;;;;;;0.70;0.10;;;20.50;99.90;;;;;;5000375;28;20482;-76
2022/05/15 08:55:06;;;;;;;0.70;0.20;;;20.60;99.90;;;;;;5006821;28;20459;-77
2022/05/15 08:57:44;;;;;;;0.70;0.20;;;20.70;99.90;;;;;;4988595;28;21297;-78
2022/05/15 09:00:15;;;;;;;0.70;0.10;;;20.90;99.90;;;;;;5017376;23;20507;-76
2022/05/15 09:02:44;;;;;;;1.13;0.20;;;20.80;99.90;;;;;;5009222;28;20448;-77
2022/05/15 09:05:15;;;;;;;0.70;0.10;;;20.90;99.90;;;;;;5012359;28;20493;-77
2022/05/15 09:08:01;;;;;;;0.70;0.10;;;21.00;99.90;;;;;;5021096;28;20465;-75
2022/05/15 09:10:34;;;;;;;0.70;0.10;;;21.20;99.90;;;;;;5019693;28;20463;-75
2022/05/15 09:13:11;;;;;;;0.70;0.10;;;21.20;99.90;;;;;;5009821;28;20494;-76
2022/05/15 09:15:50;;;;;;;0.70;0.20;;;21.30;99.90;;;;;;5013284;28;20446;-75
2022/05/15 09:18:21;;;;;;;0.70;0.10;;;21.40;99.90;;;;;;4998012;28;20447;-76
2022/05/15 09:21:00;;;;;;;0.70;0.40;;;21.40;99.90;;;;;;5005398;28;20950;-74
2022/05/15 09:23:34;;;;;;;0.97;0.30;;;21.50;99.90;;;;;;5011693;28;20493;-75
2022/05/15 09:26:12;;;;;;;0.70;0.20;;;21.60;99.90;;;;;;5012844;28;20969;-73
2022/05/15 09:28:45;;;;;;;0.70;0.30;;;21.70;99.90;;;;;;5020984;28;20532;-73
2022/05/15 09:31:24;;;;;;;0.70;0.10;;;21.80;99.90;;;;;;5001268;28;20998;-77
2022/05/15 09:33:56;;;;;;;0.70;0.20;;;22.10;99.90;;;;;;5009723;28;20453;-80
2022/05/15 09:36:27;;;;;;;0.70;0.20;;;22.00;99.90;;;;;;4997618;28;20450;-74
2022/05/15 09:39:18;;;;;;;0.70;0.20;;;22.10;99.90;;;;;;5005496;28;20433;-75
2022/05/15 09:44:44;;;;;;;0.70;0.10;;;22.20;99.90;;;;;;5001816;28;20517;-73
2022/05/15 09:47:26;;;;;;;0.70;0.10;;;22.20;99.90;;;;;;5000407;28;20472;-72
2022/05/15 09:49:53;;;;;;;0.70;0.10;;;22.20;99.90;;;;;;5013953;28;20542;-77
2022/05/15 09:52:31;;;;;;;0.70;0.20;;;22.30;99.90;;;;;;5003605;28;20545;-77
2022/05/15 09:55:10;;;;;;;0.70;0.17;;;22.30;99.90;;;;;;5003181;28;20441;-73
2022/05/15 09:57:38;;;;;;;0.70;0.10;;;22.30;99.90;;;;;;5007259;28;20551;-75
2022/05/15 10:00:12;;;;;;;0.70;0.20;;;22.30;99.90;;;;;;4994996;28;20995;-74
2022/05/15 10:02:45;;;;;;;0.70;0.10;;;22.30;99.90;;;;;;5004642;28;20571;-74
2022/05/15 10:05:20;;;;;;;0.70;0.13;;;22.50;99.90;;;;;;5005948;28;20477;-71
2022/05/15 10:08:01;;;;;;;0.70;0.10;;;22.60;99.90;;;;;;5007510;28;20479;-73
2022/05/15 10:10:34;;;;;;;0.70;0.27;;;22.80;99.90;;;;;;4999510;28;20459;-74
2022/05/15 10:13:07;;;;;;;0.70;0.20;;;22.90;99.90;;;;;;5001768;28;20483;-74
2022/05/15 10:15:41;;;;;;;0.70;0.10;;;23.00;99.90;;;;;;5005824;28;20969;-69
2022/05/15 10:18:14;;;;;;;0.80;0.53;;;23.10;99.90;;;;;;5004531;28;20502;-75
2022/05/15 10:20:45;;;;;;;0.70;0.10;;;23.20;99.90;;;;;;5008218;28;20468;-69
2022/05/15 10:23:16;;;;;;;0.70;0.20;;;23.30;99.90;;;;;;5003099;28;20436;-71
2022/05/15 10:25:53;;;;;;;0.70;0.20;;;23.40;99.90;;;;;;4995492;28;20460;-71
2022/05/15 10:28:30;;;;;;;0.70;0.10;;;23.50;99.90;;;;;;4995482;28;20985;-74
2022/05/15 10:31:05;;;;;;;0.70;0.20;;;23.50;99.90;;;;;;5002318;28;20490;-74
2022/05/15 10:33:37;;;;;;;0.80;0.30;;;23.60;99.90;;;;;;5006086;28;20486;-76
2022/05/15 10:36:27;;;;;;;0.70;0.20;;;23.60;99.90;;;;;;5011171;28;20510;-71
2022/05/15 10:39:06;;;;;;;0.70;0.10;;;23.80;99.90;;;;;;5009566;28;20208;-72
2022/05/15 10:41:42;;;;;;;0.70;0.20;;;23.80;99.90;;;;;;5011677;28;20472;-76
2022/05/15 10:44:21;;;;;;;0.70;0.10;;;23.90;99.90;;;;;;5006387;28;20464;-77
2022/05/15 10:46:58;;;;;;;0.70;0.20;;;24.00;99.90;;;;;;5008977;28;20961;-79
2022/05/15 10:49:37;;;;;;;0.80;0.30;;;24.10;99.90;;;;;;5018854;28;20468;-76
2022/05/15 10:52:18;;;;;;;0.70;0.20;;;24.10;99.90;;;;;;5014478;28;21057;-72
2022/05/15 10:57:50;;;;;;;0.70;0.10;;;24.10;99.90;;;;;;5004313;28;20893;-71
2022/05/15 11:00:33;;;;;;;0.70;0.10;;;24.30;99.90;;;;;;5017430;28;20707;-73
2022/05/15 11:03:32;;;;;;;0.70;0.20;;;24.50;99.90;;;;;;5015858;28;20452;-74
2022/05/15 11:06:23;;;;;;;0.70;0.20;;;24.60;99.90;;;;;;4999557;28;20519;-74
2022/05/15 11:09:00;;;;;;;0.70;0.10;;;24.70;99.90;;;;;;5014810;28;20533;-74
2022/05/15 11:11:44;;;;;;;0.70;0.10;;;24.80;99.90;;;;;;5004357;28;20464;-73
2022/05/15 11:14:21;;;;;;;0.70;0.10;;;24.80;99.90;;;;;;5001774;28;20205;-74
2022/05/15 11:17:00;;;;;;;0.70;0.10;;;24.90;99.90;;;;;;5015624;28;20455;-75
2022/05/15 11:19:35;;;;;;;0.70;0.20;;;25.00;99.90;;;;;;4996121;28;20260;-74
2022/05/15 11:22:18;;;;;;;0.70;0.17;;;25.00;99.90;;;;;;5011929;28;20207;-74
2022/05/15 11:24:52;;;;;;;0.70;0.10;;;25.20;99.90;;;;;;5003031;28;20884;-75
2022/05/15 11:27:25;;;;;;;0.70;0.10;;;25.30;99.90;;;;;;5013606;28;20448;-73
2022/05/15 11:29:56;;;;;;;0.70;0.10;;;25.40;99.90;;;;;;5025887;28;20545;-74
2022/05/15 11:32:38;;;;;;;0.70;0.20;;;25.40;99.90;;;;;;5019765;28;20805;-74
2022/05/15 11:35:24;;;;;;;0.70;0.20;;;25.40;99.90;;;;;;5015628;28;20444;-74
2022/05/15 11:38:19;;;;;;;0.70;0.10;;;25.30;99.90;;;;;;5017373;28;20447;-74
2022/05/15 11:40:48;;;;;;;0.70;0.10;;;25.20;99.90;;;;;;5032341;28;20464;-74
2022/05/15 11:43:59;;;;;;;0.70;0.30;;;25.20;99.90;;;;;;5035157;28;20434;-74
2022/05/15 11:47:00;;;;;;;0.70;0.17;;;25.30;99.90;;;;;;5034201;28;20490;-74
2022/05/15 11:49:37;;;;;;;0.70;0.10;;;25.30;99.90;;;;;;5021795;28;20544;-75
2022/05/15 11:52:29;;;;;;;0.70;0.20;;;25.30;99.90;;;;;;5031669;28;20486;-76
2022/05/15 11:54:59;;;;;;;1.23;0.90;;;25.20;99.90;;;;;;5014923;28;20551;-73
2022/05/15 11:57:38;;;;;;;0.70;0.10;;;25.20;99.90;;;;;;5014215;28;20443;-76
2022/05/15 12:00:12;;;;;;;0.70;0.10;;;25.20;99.90;;;;;;5014862;28;20476;-77
2022/05/15 12:02:54;;;;;;;0.70;0.20;;;25.20;99.90;;;;;;5014553;28;20833;-73
2022/05/15 12:05:30;;;;;;;1.38;0.95;;;25.60;99.90;;;;;;5014354;28;20444;-74
2022/05/15 12:08:20;;;;;;;0.70;0.20;;;25.30;99.90;;;;;;5014071;28;20213;-73
2022/05/15 12:10:55;;;;;;;0.70;0.20;;;;;;;;;;5014502;28;20462;-74
2022/05/15 12:13:38;;;;;;;0.70;0.10;;;25.20;99.90;;;;;;5014087;28;20492;-75
2022/05/15 12:16:25;;;;;;;0.70;0.10;;;25.20;99.90;;;;;;5014556;28;20537;-76
2022/05/15 12:19:06;;;;;;;0.70;0.10;;;25.20;99.90;;;;;;5014969;28;20457;-76
2022/05/15 12:21:39;;;;;;;0.70;0.17;;;25.10;99.90;;;;;;5015932;28;20535;-76
2022/05/15 12:24:29;;;;;;;0.70;0.10;;;25.00;99.90;;;;;;5015627;28;20441;-75
2022/05/15 12:27:10;;;;;;;0.70;0.20;;;25.30;99.90;;;;;;5004807;28;20476;-76
2022/05/15 12:29:59;;;;;;;0.70;0.10;;;25.50;99.90;;;;;;4995302;28;20924;-76
2022/05/15 12:32:35;;;;;;;0.70;0.20;;;25.60;99.90;;;;;;4996413;28;20479;-74
2022/05/15 12:35:07;;;;;;;0.80;0.30;;;25.60;99.90;;;;;;4996078;28;20543;-74
2022/05/15 12:37:50;;;;;;;1.17;0.73;;;25.80;99.90;;;;;;4995744;28;20463;-74
2022/05/15 12:40:25;;;;;;;0.70;0.20;;;25.90;99.90;;;;;;4995750;28;20582;-76
2022/05/15 12:42:54;;;;;;;0.70;0.20;;;25.90;99.90;;;;;;4996767;28;20643;-74
2022/05/15 12:45:24;;;;;;;0.70;0.20;;;26.00;99.90;;;;;;4996223;28;20520;-75
2022/05/15 12:48:06;;;;;;;0.70;0.20;;;26.10;99.90;;;;;;4995442;28;20447;-76
2022/05/15 12:50:47;;;;;;;0.70;0.10;;;26.30;99.90;;;;;;4995694;28;20565;-74
2022/05/15 12:53:19;;;;;;;0.70;0.10;;;26.30;99.90;;;;;;4994622;28;20552;-77
2022/05/15 12:55:47;;;;;;;0.70;0.20;;;26.40;99.90;;;;;;4994350;28;20439;-75
2022/05/15 12:58:30;;;;;;;0.70;0.20;;;26.50;99.90;;;;;;4994688;28;20819;-74
2022/05/15 13:00:58;;;;;;;0.70;0.20;;;26.50;99.90;;;;;;4996390;28;20481;-75
2022/05/15 13:03:26;;;;;;;0.70;0.20;;;26.50;99.90;;;;;;4995077;28;20945;-76
2022/05/15 13:05:56;;;;;;;0.70;0.20;;;26.40;99.90;;;;;;4994459;28;20562;-75
2022/05/15 13:08:25;;;;;;;0.70;0.20;;;26.40;99.90;;;;;;4995106;28;20599;-75
2022/05/15 13:10:56;;;;;;;0.70;0.17;;;26.40;99.90;;;;;;4995088;28;20489;-76
2022/05/15 13:13:29;;;;;;;0.70;0.10;;;26.30;99.90;;;;;;4994798;28;20486;-74
2022/05/15 13:15:59;;;;;;;0.70;0.20;;;26.20;99.90;;;;;;4994370;28;20548;-75
2022/05/15 13:18:31;;;;;;;0.70;0.10;;;26.20;99.90;;;;;;4993896;28;20219;-75
2022/05/15 13:21:03;;;;;;;1.53;1.17;;;26.00;99.90;;;;;;4994197;28;20476;-75
2022/05/15 13:23:34;;;;;;;0.70;0.20;;;25.90;99.90;;;;;;4994081;28;20890;-76
2022/05/15 13:26:04;;;;;;;0.70;0.10;;;25.90;99.90;;;;;;4993123;28;20455;-75
2022/05/15 13:28:35;;;;;;;0.70;0.10;;;26.00;99.90;;;;;;4994033;28;20448;-76
2022/05/15 13:31:03;;;;;;;0.70;0.10;;;26.00;99.90;;;;;;4994488;28;20917;-75
2022/05/15 13:33:34;;;;;;;0.70;0.20;;;26.00;99.90;;;;;;4994261;28;20487;-76